Pagina principale
METAR-TAF:

METAR-TAF

Aeroporti :

Aeroporto di Milano-Malpensa

Milano, Italia

latitudine: 45-37N, longitudine: 008-44E, altezza: 234 m

Osservazione

Il bollettino è stato emesso 27 minuti fa, alle 11:20 UTC
Vento 5 kt da sud/sud-est, variando fra est e sud-ovest
Temperature 21°C
Umidità 64%
Pressione 1024 hPa
Visibilità 10 km o più
nessuna nube inferiore a 1500 m e nessun cumulonembo

METAR: LIMC 201120Z 16005KT 090V220 CAVOK 21/14 Q1024 NOSIG

Ora: 13:47 (11:47 UTC)

Previsione

Il bollettino è stato emesso 47 minuti fa, alle 11:00 UTC
Previsione valida dal 20 alle 12 UTC al 21 alle 18 UTC
Vento 5 kt da direzioni variabili
Visibilità 10 km o più
nessuna nube inferiore a 1500 m e nessun cumulonembo
Temporaneamente
dal 21 alle 02 UTC al 21 alle 06 UTC
Visibilità: 4000 m
banchi di nebbia

TAF: LIMC 201100Z 2012/2118 VRB05KT CAVOK TEMPO 2102/2106 4000 BCFG

Osservazioni e previsioni meteorologiche di più di 4000 aeroporti (messaggi METAR e TAF).

Le stazioni disponibili sono rappresentate dai dischi gialli e rossi sulla carta.

Puntare il mouse per vedere il nome della stazione.

Clicca sopra per visualizzare le osservazioni e previsioni meteorologiche.

Per cambiare la mappa : fare clic sui pulsanti verdi con una croce nera per ingrandire, il pulsante verde con un trattino per diminuire, o sulla freccia verde per le mappe adiacenti.


METAR-TAF: